sensor_id;sensor_type;location;lat;lon;timestamp;temperature;humidity
70151;DHT22;57517;43.562;19.540;2022-07-22T00:01:35;563.40;1638.40
70151;DHT22;57517;43.562;19.540;2022-07-22T00:04:01;563.50;1638.40
70151;DHT22;57517;43.562;19.540;2022-07-22T00:06:28;563.50;1612.80
70151;DHT22;57517;43.562;19.540;2022-07-22T00:08:55;563.50;1664.00
70151;DHT22;57517;43.562;19.540;2022-07-22T00:11:21;563.60;1638.40
70151;DHT22;57517;43.562;19.540;2022-07-22T00:13:47;563.50;1638.40
70151;DHT22;57517;43.562;19.540;2022-07-22T00:16:13;563.40;1638.40
70151;DHT22;57517;43.562;19.540;2022-07-22T00:18:39;563.20;1638.40
70151;DHT22;57517;43.562;19.540;2022-07-22T00:21:05;538.40;1638.40
70151;DHT22;57517;43.562;19.540;2022-07-22T00:23:31;537.90;1689.60
70151;DHT22;57517;43.562;19.540;2022-07-22T00:25:58;537.70;1715.20
70151;DHT22;57517;43.562;19.540;2022-07-22T00:28:23;537.80;1689.60
70151;DHT22;57517;43.562;19.540;2022-07-22T00:30:49;538.00;1689.60
70151;DHT22;57517;43.562;19.540;2022-07-22T00:33:15;538.10;1689.60
70151;DHT22;57517;43.562;19.540;2022-07-22T00:35:41;538.10;1689.60
70151;DHT22;57517;43.562;19.540;2022-07-22T00:38:07;538.10;1689.60
70151;DHT22;57517;43.562;19.540;2022-07-22T00:40:33;538.30;1664.00
70151;DHT22;57517;43.562;19.540;2022-07-22T00:43:00;538.20;1664.00
70151;DHT22;57517;43.562;19.540;2022-07-22T00:45:25;538.10;1689.60
70151;DHT22;57517;43.562;19.540;2022-07-22T00:47:51;538.00;1715.20
70151;DHT22;57517;43.562;19.540;2022-07-22T00:50:17;537.60;1740.80
70151;DHT22;57517;43.562;19.540;2022-07-22T00:52:45;537.70;1715.20
70151;DHT22;57517;43.562;19.540;2022-07-22T00:55:12;537.80;1715.20
70151;DHT22;57517;43.562;19.540;2022-07-22T00:57:38;537.70;1715.20
70151;DHT22;57517;43.562;19.540;2022-07-22T01:00:07;512.80;1740.80
70151;DHT22;57517;43.562;19.540;2022-07-22T01:02:33;537.70;1740.80
70151;DHT22;57517;43.562;19.540;2022-07-22T01:04:59;537.70;1740.80
70151;DHT22;57517;43.562;19.540;2022-07-22T01:07:25;537.80;1715.20
70151;DHT22;57517;43.562;19.540;2022-07-22T01:09:51;538.00;1740.80
70151;DHT22;57517;43.562;19.540;2022-07-22T01:12:17;537.60;1766.40
70151;DHT22;57517;43.562;19.540;2022-07-22T01:14:42;512.60;1766.40
70151;DHT22;57517;43.562;19.540;2022-07-22T01:17:08;512.30;1792.00
70151;DHT22;57517;43.562;19.540;2022-07-22T01:19:36;512.60;1792.00
70151;DHT22;57517;43.562;19.540;2022-07-22T01:22:02;512.70;1766.40
70151;DHT22;57517;43.562;19.540;2022-07-22T01:24:28;512.70;1740.80
70151;DHT22;57517;43.562;19.540;2022-07-22T01:26:54;512.70;1766.40
70151;DHT22;57517;43.562;19.540;2022-07-22T01:29:20;512.30;1792.00
70151;DHT22;57517;43.562;19.540;2022-07-22T01:31:46;512.30;1792.00
70151;DHT22;57517;43.562;19.540;2022-07-22T01:34:12;512.00;1817.60
70151;DHT22;57517;43.562;19.540;2022-07-22T01:36:38;512.20;1792.00
70151;DHT22;57517;43.562;19.540;2022-07-22T01:39:04;512.30;1766.40
70151;DHT22;57517;43.562;19.540;2022-07-22T01:41:30;512.20;1792.00
70151;DHT22;57517;43.562;19.540;2022-07-22T01:43:55;512.30;1766.40
70151;DHT22;57517;43.562;19.540;2022-07-22T01:46:21;487.20;1817.60
70151;DHT22;57517;43.562;19.540;2022-07-22T01:48:50;487.20;1817.60
70151;DHT22;57517;43.562;19.540;2022-07-22T01:51:16;487.30;1817.60
70151;DHT22;57517;43.562;19.540;2022-07-22T01:53:42;512.10;1792.00
70151;DHT22;57517;43.562;19.540;2022-07-22T01:56:08;512.20;1792.00
70151;DHT22;57517;43.562;19.540;2022-07-22T01:58:33;512.20;1792.00
70151;DHT22;57517;43.562;19.540;2022-07-22T02:00:59;512.10;1792.00
70151;DHT22;57517;43.562;19.540;2022-07-22T02:03:25;512.00;1817.60
70151;DHT22;57517;43.562;19.540;2022-07-22T02:05:51;487.20;1843.20
70151;DHT22;57517;43.562;19.540;2022-07-22T02:08:17;487.20;1843.20
70151;DHT22;57517;43.562;19.540;2022-07-22T02:10:44;486.90;1868.80
70151;DHT22;57517;43.562;19.540;2022-07-22T02:13:10;486.90;1868.80
70151;DHT22;57517;43.562;19.540;2022-07-22T02:15:36;487.20;1843.20
70151;DHT22;57517;43.562;19.540;2022-07-22T02:18:13;487.30;1843.20
70151;DHT22;57517;43.562;19.540;2022-07-22T02:20:39;512.10;1817.60
70151;DHT22;57517;43.562;19.540;2022-07-22T02:23:05;512.20;1817.60
70151;DHT22;57517;43.562;19.540;2022-07-22T02:25:32;512.20;1817.60
70151;DHT22;57517;43.562;19.540;2022-07-22T02:27:58;512.10;1843.20
70151;DHT22;57517;43.562;19.540;2022-07-22T02:30:24;487.20;1868.80
70151;DHT22;57517;43.562;19.540;2022-07-22T02:32:50;487.00;1868.80
70151;DHT22;57517;43.562;19.540;2022-07-22T02:35:16;486.90;1868.80
70151;DHT22;57517;43.562;19.540;2022-07-22T02:37:41;486.70;1868.80
70151;DHT22;57517;43.562;19.540;2022-07-22T02:40:07;486.60;1894.40
70151;DHT22;57517;43.562;19.540;2022-07-22T02:42:34;486.60;1894.40
70151;DHT22;57517;43.562;19.540;2022-07-22T02:45:00;486.80;1894.40
70151;DHT22;57517;43.562;19.540;2022-07-22T02:47:26;486.90;1868.80
70151;DHT22;57517;43.562;19.540;2022-07-22T02:49:52;487.10;1868.80
70151;DHT22;57517;43.562;19.540;2022-07-22T02:52:18;487.10;1868.80
70151;DHT22;57517;43.562;19.540;2022-07-22T02:54:44;487.00;1868.80
70151;DHT22;57517;43.562;19.540;2022-07-22T02:57:09;486.90;1894.40
70151;DHT22;57517;43.562;19.540;2022-07-22T02:59:35;486.70;1920.00
70151;DHT22;57517;43.562;19.540;2022-07-22T03:02:02;486.60;1945.60
70151;DHT22;57517;43.562;19.540;2022-07-22T03:04:28;486.40;1945.60
70151;DHT22;57517;43.562;19.540;2022-07-22T03:06:54;486.40;1945.60
70151;DHT22;57517;43.562;19.540;2022-07-22T03:09:20;461.70;1971.20
70151;DHT22;57517;43.562;19.540;2022-07-22T03:11:46;461.60;1971.20
70151;DHT22;57517;43.562;19.540;2022-07-22T03:14:12;461.60;1971.20
70151;DHT22;57517;43.562;19.540;2022-07-22T03:16:38;461.50;1971.20
70151;DHT22;57517;43.562;19.540;2022-07-22T03:19:04;486.40;1945.60
70151;DHT22;57517;43.562;19.540;2022-07-22T03:21:29;486.60;1945.60
70151;DHT22;57517;43.562;19.540;2022-07-22T03:23:55;486.50;1920.00
70151;DHT22;57517;43.562;19.540;2022-07-22T03:26:22;486.60;1920.00
70151;DHT22;57517;43.562;19.540;2022-07-22T03:28:49;486.60;1920.00
70151;DHT22;57517;43.562;19.540;2022-07-22T03:31:14;486.40;1945.60
70151;DHT22;57517;43.562;19.540;2022-07-22T03:33:40;486.60;1920.00
70151;DHT22;57517;43.562;19.540;2022-07-22T03:36:07;486.80;1894.40
70151;DHT22;57517;43.562;19.540;2022-07-22T03:38:34;486.40;1945.60
70151;DHT22;57517;43.562;19.540;2022-07-22T03:41:00;486.50;1920.00
70151;DHT22;57517;43.562;19.540;2022-07-22T03:43:25;486.60;1920.00
70151;DHT22;57517;43.562;19.540;2022-07-22T03:45:51;486.80;1894.40
70151;DHT22;57517;43.562;19.540;2022-07-22T03:48:17;486.60;1920.00
70151;DHT22;57517;43.562;19.540;2022-07-22T03:50:43;486.80;1894.40
70151;DHT22;57517;43.562;19.540;2022-07-22T03:53:09;486.70;1894.40
70151;DHT22;57517;43.562;19.540;2022-07-22T03:55:34;486.60;1920.00
70151;DHT22;57517;43.562;19.540;2022-07-22T03:58:00;486.50;1920.00
70151;DHT22;57517;43.562;19.540;2022-07-22T04:00:26;486.40;1945.60
70151;DHT22;57517;43.562;19.540;2022-07-22T04:02:52;486.40;1945.60
70151;DHT22;57517;43.562;19.540;2022-07-22T04:05:18;486.60;1920.00
70151;DHT22;57517;43.562;19.540;2022-07-22T04:07:44;486.60;1920.00
70151;DHT22;57517;43.562;19.540;2022-07-22T04:10:09;486.80;1894.40
70151;DHT22;57517;43.562;19.540;2022-07-22T04:12:37;486.90;1868.80
70151;DHT22;57517;43.562;19.540;2022-07-22T04:15:05;486.80;1920.00
70151;DHT22;57517;43.562;19.540;2022-07-22T04:17:32;486.80;1920.00
70151;DHT22;57517;43.562;19.540;2022-07-22T04:19:58;486.60;1920.00
70151;DHT22;57517;43.562;19.540;2022-07-22T04:22:26;486.50;1945.60
70151;DHT22;57517;43.562;19.540;2022-07-22T04:24:52;461.70;1945.60
70151;DHT22;57517;43.562;19.540;2022-07-22T04:27:18;461.60;1971.20
70151;DHT22;57517;43.562;19.540;2022-07-22T04:29:44;461.60;1971.20
70151;DHT22;57517;43.562;19.540;2022-07-22T04:32:10;486.40;1945.60
70151;DHT22;57517;43.562;19.540;2022-07-22T04:34:35;486.50;1945.60
70151;DHT22;57517;43.562;19.540;2022-07-22T04:37:01;486.70;1945.60
70151;DHT22;57517;43.562;19.540;2022-07-22T04:39:27;486.80;1920.00
70151;DHT22;57517;43.562;19.540;2022-07-22T04:41:53;486.90;1920.00
70151;DHT22;57517;43.562;19.540;2022-07-22T04:44:19;487.20;1894.40
70151;DHT22;57517;43.562;19.540;2022-07-22T04:46:44;537.60;1843.20
70151;DHT22;57517;43.562;19.540;2022-07-22T04:49:10;563.60;1689.60
70151;DHT22;57517;43.562;19.540;2022-07-22T04:51:36;589.60;1561.60
70151;DHT22;57517;43.562;19.540;2022-07-22T04:54:02;614.70;1484.80
70151;DHT22;57517;43.562;19.540;2022-07-22T04:56:28;640.20;1433.60
70151;DHT22;57517;43.562;19.540;2022-07-22T04:58:53;665.80;1382.40
70151;DHT22;57517;43.562;19.540;2022-07-22T05:01:19;666.40;1305.60
70151;DHT22;57517;43.562;19.540;2022-07-22T05:03:45;691.70;1254.40
70151;DHT22;57517;43.562;19.540;2022-07-22T05:06:11;716.90;1228.80
70151;DHT22;57517;43.562;19.540;2022-07-22T05:08:36;742.40;1177.60
70151;DHT22;57517;43.562;19.540;2022-07-22T05:11:02;743.00;1126.40
70151;DHT22;57517;43.562;19.540;2022-07-22T05:13:28;743.10;1126.40
70151;DHT22;57517;43.562;19.540;2022-07-22T05:15:54;768.60;1075.20
70151;DHT22;57517;43.562;19.540;2022-07-22T05:18:20;768.50;1100.80
70151;DHT22;57517;43.562;19.540;2022-07-22T05:20:46;793.70;1075.20
70151;DHT22;57517;43.562;19.540;2022-07-22T05:23:11;793.80;1049.60
70151;DHT22;57517;43.562;19.540;2022-07-22T05:25:37;793.70;1075.20
70151;DHT22;57517;43.562;19.540;2022-07-22T05:28:03;793.80;1049.60
70151;DHT22;57517;43.562;19.540;2022-07-22T05:30:29;819.50;998.40
70151;DHT22;57517;43.562;19.540;2022-07-22T05:32:55;819.60;972.80
70151;DHT22;57517;43.562;19.540;2022-07-22T05:35:21;819.40;972.80
70151;DHT22;57517;43.562;19.540;2022-07-22T05:37:47;819.70;972.80
70151;DHT22;57517;43.562;19.540;2022-07-22T05:40:13;820.10;947.20
70151;DHT22;57517;43.562;19.540;2022-07-22T05:42:39;845.20;896.00
70151;DHT22;57517;43.562;19.540;2022-07-22T05:45:05;845.70;870.40
70151;DHT22;57517;43.562;19.540;2022-07-22T05:47:31;870.60;896.00
70151;DHT22;57517;43.562;19.540;2022-07-22T05:49:56;871.10;819.20
70151;DHT22;57517;43.562;19.540;2022-07-22T05:52:22;871.10;819.20
70151;DHT22;57517;43.562;19.540;2022-07-22T05:54:48;871.20;819.20
70151;DHT22;57517;43.562;19.540;2022-07-22T05:57:14;871.10;844.80
70151;DHT22;57517;43.562;19.540;2022-07-22T05:59:40;896.40;793.60
70151;DHT22;57517;43.562;19.540;2022-07-22T06:02:07;896.80;768.00
70151;DHT22;57517;43.562;19.540;2022-07-22T06:04:33;896.90;768.00
70151;DHT22;57517;43.562;19.540;2022-07-22T06:06:59;921.70;793.60
70151;DHT22;57517;43.562;19.540;2022-07-22T06:09:25;947.20;742.40
70151;DHT22;57517;43.562;19.540;2022-07-22T06:11:51;947.60;716.80
70151;DHT22;57517;43.562;19.540;2022-07-22T06:14:17;947.90;716.80
70151;DHT22;57517;43.562;19.540;2022-07-22T06:16:43;947.20;742.40
70151;DHT22;57517;43.562;19.540;2022-07-22T06:19:08;947.60;716.80
70151;DHT22;57517;43.562;19.540;2022-07-22T06:21:34;947.90;716.80
70151;DHT22;57517;43.562;19.540;2022-07-22T06:24:01;972.80;716.80
70151;DHT22;57517;43.562;19.540;2022-07-22T06:26:27;948.10;691.20
70151;DHT22;57517;43.562;19.540;2022-07-22T06:28:53;948.10;691.20
70151;DHT22;57517;43.562;19.540;2022-07-22T06:31:19;973.50;665.60
70151;DHT22;57517;43.562;19.540;2022-07-22T06:33:45;973.60;691.20
70151;DHT22;57517;43.562;19.540;2022-07-22T06:36:11;998.60;665.60
70151;DHT22;57517;43.562;19.540;2022-07-22T06:38:36;999.30;665.60
70151;DHT22;57517;43.562;19.540;2022-07-22T06:41:02;1024.00;640.00
70151;DHT22;57517;43.562;19.540;2022-07-22T06:43:28;1024.30;614.40
70151;DHT22;57517;43.562;19.540;2022-07-22T06:45:54;1024.70;614.40
70151;DHT22;57517;43.562;19.540;2022-07-22T06:48:20;1049.60;640.00
70151;DHT22;57517;43.562;19.540;2022-07-22T06:50:46;1049.60;665.60
70151;DHT22;57517;43.562;19.540;2022-07-22T06:53:12;1049.80;614.40
70151;DHT22;57517;43.562;19.540;2022-07-22T06:55:38;1049.70;640.00
70151;DHT22;57517;43.562;19.540;2022-07-22T06:58:04;1050.40;588.80
70151;DHT22;57517;43.562;19.540;2022-07-22T07:00:30;1050.20;614.40
70151;DHT22;57517;43.562;19.540;2022-07-22T07:02:58;1050.10;614.40
70151;DHT22;57517;43.562;19.540;2022-07-22T07:05:25;1050.50;588.80
70151;DHT22;57517;43.562;19.540;2022-07-22T07:07:53;1075.20;588.80
70151;DHT22;57517;43.562;19.540;2022-07-22T07:10:19;1049.90;614.40
70151;DHT22;57517;43.562;19.540;2022-07-22T07:12:44;1075.30;588.80
70151;DHT22;57517;43.562;19.540;2022-07-22T07:15:10;1076.10;563.20
70151;DHT22;57517;43.562;19.540;2022-07-22T07:17:37;1101.00;588.80
70151;DHT22;57517;43.562;19.540;2022-07-22T07:20:04;1100.90;588.80
70151;DHT22;57517;43.562;19.540;2022-07-22T07:22:31;1101.20;588.80
70151;DHT22;57517;43.562;19.540;2022-07-22T07:25:01;1101.40;563.20
70151;DHT22;57517;43.562;19.540;2022-07-22T07:27:27;1101.40;563.20
70151;DHT22;57517;43.562;19.540;2022-07-22T07:29:53;1075.70;537.60
70151;DHT22;57517;43.562;19.540;2022-07-22T07:32:19;1075.70;563.20
70151;DHT22;57517;43.562;19.540;2022-07-22T07:34:44;1075.70;563.20
70151;DHT22;57517;43.562;19.540;2022-07-22T07:37:11;1075.30;588.80
70151;DHT22;57517;43.562;19.540;2022-07-22T07:39:37;1050.10;614.40
70151;DHT22;57517;43.562;19.540;2022-07-22T07:42:03;1050.00;614.40
70151;DHT22;57517;43.562;19.540;2022-07-22T07:44:28;1024.90;614.40
70151;DHT22;57517;43.562;19.540;2022-07-22T07:46:54;1024.00;614.40
70151;DHT22;57517;43.562;19.540;2022-07-22T07:49:20;998.60;640.00
70151;DHT22;57517;43.562;19.540;2022-07-22T07:51:46;973.20;691.20
70151;DHT22;57517;43.562;19.540;2022-07-22T07:54:12;947.90;665.60
70151;DHT22;57517;43.562;19.540;2022-07-22T07:56:38;922.30;768.00
70151;DHT22;57517;43.562;19.540;2022-07-22T07:59:04;921.80;742.40
70151;DHT22;57517;43.562;19.540;2022-07-22T08:01:30;921.60;768.00
70151;DHT22;57517;43.562;19.540;2022-07-22T08:03:56;896.50;742.40
70151;DHT22;57517;43.562;19.540;2022-07-22T08:06:22;896.20;793.60
70151;DHT22;57517;43.562;19.540;2022-07-22T08:08:47;871.20;819.20
70151;DHT22;57517;43.562;19.540;2022-07-22T13:20:32;922.10;665.60
70151;DHT22;57517;43.562;19.540;2022-07-22T13:22:58;921.90;665.60
70151;DHT22;57517;43.562;19.540;2022-07-22T13:25:23;921.80;640.00
70151;DHT22;57517;43.562;19.540;2022-07-22T13:27:53;921.80;640.00
70151;DHT22;57517;43.562;19.540;2022-07-22T13:30:19;921.80;640.00
70151;DHT22;57517;43.562;19.540;2022-07-22T13:32:44;921.60;665.60
70151;DHT22;57517;43.562;19.540;2022-07-22T13:35:10;921.70;640.00
70151;DHT22;57517;43.562;19.540;2022-07-22T13:37:36;921.70;614.40
70151;DHT22;57517;43.562;19.540;2022-07-22T13:40:03;921.80;614.40
70151;DHT22;57517;43.562;19.540;2022-07-22T13:42:29;921.80;588.80
70151;DHT22;57517;43.562;19.540;2022-07-22T13:44:55;921.90;588.80
70151;DHT22;57517;43.562;19.540;2022-07-22T13:47:21;921.90;588.80
70151;DHT22;57517;43.562;19.540;2022-07-22T13:49:47;921.80;588.80
70151;DHT22;57517;43.562;19.540;2022-07-22T13:52:13;921.80;588.80
70151;DHT22;57517;43.562;19.540;2022-07-22T13:54:39;921.80;588.80
70151;DHT22;57517;43.562;19.540;2022-07-22T13:57:05;921.80;588.80
70151;DHT22;57517;43.562;19.540;2022-07-22T13:59:31;921.80;588.80
70151;DHT22;57517;43.562;19.540;2022-07-22T14:01:57;921.70;588.80
70151;DHT22;57517;43.562;19.540;2022-07-22T14:04:24;921.80;588.80
70151;DHT22;57517;43.562;19.540;2022-07-22T14:06:50;921.80;588.80
70151;DHT22;57517;43.562;19.540;2022-07-22T14:09:16;921.80;588.80
70151;DHT22;57517;43.562;19.540;2022-07-22T14:11:42;921.80;588.80
70151;DHT22;57517;43.562;19.540;2022-07-22T14:14:07;921.90;588.80
70151;DHT22;57517;43.562;19.540;2022-07-22T14:16:35;921.80;614.40
70151;DHT22;57517;43.562;19.540;2022-07-22T14:21:27;921.80;588.80
70151;DHT22;57517;43.562;19.540;2022-07-22T14:23:52;921.80;588.80
70151;DHT22;57517;43.562;19.540;2022-07-22T14:26:18;921.80;640.00
70151;DHT22;57517;43.562;19.540;2022-07-22T14:28:44;921.80;614.40
70151;DHT22;57517;43.562;19.540;2022-07-22T14:31:10;921.80;665.60
70151;DHT22;57517;43.562;19.540;2022-07-22T14:33:36;921.70;665.60
70151;DHT22;57517;43.562;19.540;2022-07-22T14:36:02;921.60;665.60
70151;DHT22;57517;43.562;19.540;2022-07-22T14:38:27;921.70;640.00
70151;DHT22;57517;43.562;19.540;2022-07-22T14:40:53;921.80;665.60
70151;DHT22;57517;43.562;19.540;2022-07-22T14:43:19;921.70;640.00
70151;DHT22;57517;43.562;19.540;2022-07-22T14:45:45;921.70;691.20
70151;DHT22;57517;43.562;19.540;2022-07-22T14:48:10;921.70;665.60
70151;DHT22;57517;43.562;19.540;2022-07-22T14:50:36;921.60;665.60
70151;DHT22;57517;43.562;19.540;2022-07-22T14:53:02;896.90;716.80
70151;DHT22;57517;43.562;19.540;2022-07-22T14:55:28;896.80;691.20
70151;DHT22;57517;43.562;19.540;2022-07-22T14:57:54;896.80;614.40
70151;DHT22;57517;43.562;19.540;2022-07-22T15:00:19;896.80;716.80
70151;DHT22;57517;43.562;19.540;2022-07-22T15:02:45;896.90;614.40
70151;DHT22;57517;43.562;19.540;2022-07-22T15:05:11;896.90;588.80
70151;DHT22;57517;43.562;19.540;2022-07-22T15:07:37;921.60;640.00
70151;DHT22;57517;43.562;19.540;2022-07-22T15:10:04;921.60;614.40
70151;DHT22;57517;43.562;19.540;2022-07-22T15:12:30;921.60;614.40
70151;DHT22;57517;43.562;19.540;2022-07-22T15:14:55;921.70;588.80
70151;DHT22;57517;43.562;19.540;2022-07-22T15:17:21;921.60;614.40
70151;DHT22;57517;43.562;19.540;2022-07-22T15:19:47;921.60;614.40
70151;DHT22;57517;43.562;19.540;2022-07-22T15:22:13;921.60;614.40
70151;DHT22;57517;43.562;19.540;2022-07-22T15:24:38;921.70;588.80
70151;DHT22;57517;43.562;19.540;2022-07-22T15:27:05;921.60;640.00
70151;DHT22;57517;43.562;19.540;2022-07-22T15:29:31;896.90;614.40
70151;DHT22;57517;43.562;19.540;2022-07-22T15:31:57;896.90;588.80
70151;DHT22;57517;43.562;19.540;2022-07-22T15:34:23;896.90;614.40
70151;DHT22;57517;43.562;19.540;2022-07-22T15:36:49;896.70;614.40
70151;DHT22;57517;43.562;19.540;2022-07-22T15:39:15;896.80;614.40
70151;DHT22;57517;43.562;19.540;2022-07-22T15:41:41;896.80;614.40
70151;DHT22;57517;43.562;19.540;2022-07-22T15:44:07;896.80;614.40
70151;DHT22;57517;43.562;19.540;2022-07-22T15:46:34;896.70;614.40
70151;DHT22;57517;43.562;19.540;2022-07-22T15:49:00;896.80;614.40
70151;DHT22;57517;43.562;19.540;2022-07-22T15:51:26;896.80;614.40
70151;DHT22;57517;43.562;19.540;2022-07-22T15:53:52;896.80;614.40
70151;DHT22;57517;43.562;19.540;2022-07-22T15:56:18;896.80;614.40
70151;DHT22;57517;43.562;19.540;2022-07-22T15:58:47;896.70;640.00
70151;DHT22;57517;43.562;19.540;2022-07-22T16:01:31;896.70;640.00
70151;DHT22;57517;43.562;19.540;2022-07-22T16:03:57;896.70;691.20
70151;DHT22;57517;43.562;19.540;2022-07-22T16:06:22;896.60;640.00
70151;DHT22;57517;43.562;19.540;2022-07-22T16:08:48;896.60;691.20
70151;DHT22;57517;43.562;19.540;2022-07-22T16:11:14;896.50;665.60
70151;DHT22;57517;43.562;19.540;2022-07-22T16:13:40;896.50;640.00
70151;DHT22;57517;43.562;19.540;2022-07-22T16:16:06;896.40;665.60
70151;DHT22;57517;43.562;19.540;2022-07-22T16:18:32;896.40;665.60
70151;DHT22;57517;43.562;19.540;2022-07-22T16:20:58;896.40;665.60
70151;DHT22;57517;43.562;19.540;2022-07-22T16:23:23;896.40;640.00
70151;DHT22;57517;43.562;19.540;2022-07-22T16:25:49;896.30;665.60
70151;DHT22;57517;43.562;19.540;2022-07-22T16:28:16;896.30;665.60
70151;DHT22;57517;43.562;19.540;2022-07-22T16:30:41;896.20;665.60
70151;DHT22;57517;43.562;19.540;2022-07-22T16:33:07;896.20;665.60
70151;DHT22;57517;43.562;19.540;2022-07-22T16:35:33;896.20;665.60
70151;DHT22;57517;43.562;19.540;2022-07-22T16:37:59;896.30;665.60
70151;DHT22;57517;43.562;19.540;2022-07-22T16:40:25;896.20;665.60
70151;DHT22;57517;43.562;19.540;2022-07-22T16:42:51;896.10;665.60
70151;DHT22;57517;43.562;19.540;2022-07-22T16:45:17;896.10;691.20
70151;DHT22;57517;43.562;19.540;2022-07-22T16:47:43;896.10;665.60
70151;DHT22;57517;43.562;19.540;2022-07-22T16:50:09;896.10;691.20
70151;DHT22;57517;43.562;19.540;2022-07-22T16:52:35;896.00;665.60
70151;DHT22;57517;43.562;19.540;2022-07-22T16:55:01;871.30;665.60
70151;DHT22;57517;43.562;19.540;2022-07-22T16:57:27;871.30;665.60
70151;DHT22;57517;43.562;19.540;2022-07-22T16:59:53;871.10;665.60
70151;DHT22;57517;43.562;19.540;2022-07-22T17:02:18;871.10;665.60
70151;DHT22;57517;43.562;19.540;2022-07-22T17:04:44;871.10;665.60
70151;DHT22;57517;43.562;19.540;2022-07-22T17:07:10;871.10;691.20
70151;DHT22;57517;43.562;19.540;2022-07-22T17:09:36;871.10;691.20
70151;DHT22;57517;43.562;19.540;2022-07-22T17:12:02;871.10;691.20
70151;DHT22;57517;43.562;19.540;2022-07-22T17:14:29;870.90;716.80
70151;DHT22;57517;43.562;19.540;2022-07-22T17:16:55;871.00;716.80
70151;DHT22;57517;43.562;19.540;2022-07-22T17:19:21;871.00;742.40
70151;DHT22;57517;43.562;19.540;2022-07-22T17:21:48;870.90;742.40
70151;DHT22;57517;43.562;19.540;2022-07-22T17:24:14;870.80;768.00
70151;DHT22;57517;43.562;19.540;2022-07-22T17:26:39;870.80;716.80
70151;DHT22;57517;43.562;19.540;2022-07-22T17:29:05;870.70;742.40
70151;DHT22;57517;43.562;19.540;2022-07-22T17:31:32;870.70;742.40
70151;DHT22;57517;43.562;19.540;2022-07-22T17:33:57;870.70;768.00
70151;DHT22;57517;43.562;19.540;2022-07-22T17:36:25;870.50;768.00
70151;DHT22;57517;43.562;19.540;2022-07-22T17:38:51;870.50;793.60
70151;DHT22;57517;43.562;19.540;2022-07-22T17:41:17;870.50;793.60
70151;DHT22;57517;43.562;19.540;2022-07-22T17:43:43;870.40;819.20
70151;DHT22;57517;43.562;19.540;2022-07-22T17:46:09;870.50;819.20
70151;DHT22;57517;43.562;19.540;2022-07-22T17:48:35;870.40;819.20
70151;DHT22;57517;43.562;19.540;2022-07-22T17:51:01;845.50;844.80
70151;DHT22;57517;43.562;19.540;2022-07-22T17:53:27;845.20;844.80
70151;DHT22;57517;43.562;19.540;2022-07-22T17:55:52;845.20;844.80
70151;DHT22;57517;43.562;19.540;2022-07-22T17:58:18;845.10;896.00
70151;DHT22;57517;43.562;19.540;2022-07-22T18:00:44;845.10;819.20
70151;DHT22;57517;43.562;19.540;2022-07-22T18:03:10;845.10;870.40
70151;DHT22;57517;43.562;19.540;2022-07-22T18:05:35;844.80;844.80
70151;DHT22;57517;43.562;19.540;2022-07-22T18:08:02;820.10;844.80
70151;DHT22;57517;43.562;19.540;2022-07-22T18:10:28;819.90;844.80
70151;DHT22;57517;43.562;19.540;2022-07-22T18:12:54;819.90;870.40
70151;DHT22;57517;43.562;19.540;2022-07-22T18:15:20;819.60;870.40
70151;DHT22;57517;43.562;19.540;2022-07-22T18:17:46;819.50;870.40
70151;DHT22;57517;43.562;19.540;2022-07-22T18:20:12;819.40;870.40
70151;DHT22;57517;43.562;19.540;2022-07-22T18:22:38;819.50;870.40
70151;DHT22;57517;43.562;19.540;2022-07-22T18:25:05;819.50;921.60
70151;DHT22;57517;43.562;19.540;2022-07-22T18:27:31;819.20;896.00
70151;DHT22;57517;43.562;19.540;2022-07-22T18:29:57;794.30;921.60
70151;DHT22;57517;43.562;19.540;2022-07-22T18:32:22;794.10;921.60
70151;DHT22;57517;43.562;19.540;2022-07-22T18:34:48;793.80;947.20
70151;DHT22;57517;43.562;19.540;2022-07-22T18:37:14;793.60;947.20
70151;DHT22;57517;43.562;19.540;2022-07-22T18:39:40;768.90;947.20
70151;DHT22;57517;43.562;19.540;2022-07-22T18:42:06;768.70;972.80
70151;DHT22;57517;43.562;19.540;2022-07-22T18:44:32;768.60;972.80
70151;DHT22;57517;43.562;19.540;2022-07-22T18:46:58;768.40;972.80
70151;DHT22;57517;43.562;19.540;2022-07-22T18:49:24;768.60;972.80
70151;DHT22;57517;43.562;19.540;2022-07-22T18:51:49;768.60;998.40
70151;DHT22;57517;43.562;19.540;2022-07-22T18:54:15;768.60;972.80
70151;DHT22;57517;43.562;19.540;2022-07-22T18:56:41;768.40;972.80
70151;DHT22;57517;43.562;19.540;2022-07-22T18:59:07;768.30;998.40
70151;DHT22;57517;43.562;19.540;2022-07-22T19:01:33;743.30;1024.00
70151;DHT22;57517;43.562;19.540;2022-07-22T19:03:59;768.00;998.40
70151;DHT22;57517;43.562;19.540;2022-07-22T19:06:25;768.10;998.40
70151;DHT22;57517;43.562;19.540;2022-07-22T19:08:52;743.20;1024.00
70151;DHT22;57517;43.562;19.540;2022-07-22T19:11:19;743.30;1024.00
70151;DHT22;57517;43.562;19.540;2022-07-22T19:13:45;743.10;1024.00
70151;DHT22;57517;43.562;19.540;2022-07-22T19:16:11;742.90;1075.20
70151;DHT22;57517;43.562;19.540;2022-07-22T19:18:37;742.70;1049.60
70151;DHT22;57517;43.562;19.540;2022-07-22T19:21:03;742.80;1075.20
70151;DHT22;57517;43.562;19.540;2022-07-22T19:23:29;742.60;1049.60
70151;DHT22;57517;43.562;19.540;2022-07-22T19:25:55;742.60;1075.20
70151;DHT22;57517;43.562;19.540;2022-07-22T19:28:20;742.60;1049.60
70151;DHT22;57517;43.562;19.540;2022-07-22T19:30:46;742.40;1100.80
70151;DHT22;57517;43.562;19.540;2022-07-22T19:33:12;717.70;1075.20
70151;DHT22;57517;43.562;19.540;2022-07-22T19:35:38;742.40;1100.80
70151;DHT22;57517;43.562;19.540;2022-07-22T19:38:04;742.40;1100.80
70151;DHT22;57517;43.562;19.540;2022-07-22T19:40:30;742.50;1100.80
70151;DHT22;57517;43.562;19.540;2022-07-22T19:42:56;742.40;1100.80
70151;DHT22;57517;43.562;19.540;2022-07-22T19:45:23;717.70;1100.80